Avery, Iowa
Current Conditions -  °F | °C
As of 10:01 PM on Friday 24 Oct 2014 (Local Time) from KOTM Reporting Station
Moderate Fog Moderate Fog  
Wind Chill: 13°   Ceiling: Unl
Heat Index: 13°   Visibility: 0.25mi
Dew Point: 13°   Wind: 3mph
Humidity: 97%   Direction: 210°SSW
Pressure: 29.95"   Gusts: NA
Location:  41.0299°N, 92.7795°W
Report Text: KOTM 250301Z AUTO 21003KT 1/4SM FG SCT022 13/13 A2995 RMK AO2 T01330128
Loading
Personal Weather Stations






























Interactive Weather Map
Tropical Storm Tracking
New forecast layout! Learn more

10-Day Weather Forecast

Advertisements
Track Severe Weather on mobile